sensor_id;sensor_type;location;lat;lon;timestamp;temperature;humidity
32534;DHT22;18973;48.580;8.912;2022-12-19T00:02:09;-0.90;99.90
32534;DHT22;18973;48.580;8.912;2022-12-19T00:04:35;-0.90;99.90
32534;DHT22;18973;48.580;8.912;2022-12-19T00:07:00;-0.90;99.90
32534;DHT22;18973;48.580;8.912;2022-12-19T00:09:26;-0.80;99.90
32534;DHT22;18973;48.580;8.912;2022-12-19T00:11:52;-0.70;99.90
32534;DHT22;18973;48.580;8.912;2022-12-19T00:14:18;-0.70;99.90
32534;DHT22;18973;48.580;8.912;2022-12-19T00:16:44;-0.70;99.90
32534;DHT22;18973;48.580;8.912;2022-12-19T00:19:10;-0.60;99.90
32534;DHT22;18973;48.580;8.912;2022-12-19T00:21:36;-0.70;99.90
32534;DHT22;18973;48.580;8.912;2022-12-19T00:24:06;-0.70;99.90
32534;DHT22;18973;48.580;8.912;2022-12-19T00:26:35;-0.60;99.90
32534;DHT22;18973;48.580;8.912;2022-12-19T00:29:03;-0.50;99.90
32534;DHT22;18973;48.580;8.912;2022-12-19T00:31:31;-0.50;99.90
32534;DHT22;18973;48.580;8.912;2022-12-19T00:33:58;-0.50;99.90
32534;DHT22;18973;48.580;8.912;2022-12-19T00:36:27;-0.40;99.90
32534;DHT22;18973;48.580;8.912;2022-12-19T00:38:55;-0.30;99.90
32534;DHT22;18973;48.580;8.912;2022-12-19T00:41:29;-0.30;99.90
32534;DHT22;18973;48.580;8.912;2022-12-19T00:44:06;-0.30;99.90
32534;DHT22;18973;48.580;8.912;2022-12-19T00:46:32;-0.40;99.90
32534;DHT22;18973;48.580;8.912;2022-12-19T00:48:59;-0.30;99.90
32534;DHT22;18973;48.580;8.912;2022-12-19T00:51:29;-0.30;99.90
32534;DHT22;18973;48.580;8.912;2022-12-19T00:53:56;-0.30;99.90
32534;DHT22;18973;48.580;8.912;2022-12-19T00:56:27;-0.30;99.90
32534;DHT22;18973;48.580;8.912;2022-12-19T00:58:55;-0.30;99.90
32534;DHT22;18973;48.580;8.912;2022-12-19T01:01:26;-0.20;99.90
32534;DHT22;18973;48.580;8.912;2022-12-19T01:03:52;-0.30;99.90
32534;DHT22;18973;48.580;8.912;2022-12-19T01:06:18;-0.20;99.90
32534;DHT22;18973;48.580;8.912;2022-12-19T01:08:44;-0.20;99.90
32534;DHT22;18973;48.580;8.912;2022-12-19T01:11:11;-0.20;99.90
32534;DHT22;18973;48.580;8.912;2022-12-19T01:13:38;-0.10;99.90
32534;DHT22;18973;48.580;8.912;2022-12-19T01:16:06;-0.10;99.90
32534;DHT22;18973;48.580;8.912;2022-12-19T01:18:32;-0.30;99.90
32534;DHT22;18973;48.580;8.912;2022-12-19T01:20:59;-0.30;99.90
32534;DHT22;18973;48.580;8.912;2022-12-19T01:23:26;-0.30;99.90
32534;DHT22;18973;48.580;8.912;2022-12-19T01:25:53;-0.30;99.90
32534;DHT22;18973;48.580;8.912;2022-12-19T01:28:19;-0.20;99.90
32534;DHT22;18973;48.580;8.912;2022-12-19T01:30:45;-0.10;99.90
32534;DHT22;18973;48.580;8.912;2022-12-19T01:33:12;-0.30;99.90
32534;DHT22;18973;48.580;8.912;2022-12-19T01:35:39;-0.30;99.90
32534;DHT22;18973;48.580;8.912;2022-12-19T01:38:05;-0.30;99.90
32534;DHT22;18973;48.580;8.912;2022-12-19T01:40:31;-0.20;99.90
32534;DHT22;18973;48.580;8.912;2022-12-19T01:42:57;-0.10;99.90
32534;DHT22;18973;48.580;8.912;2022-12-19T01:45:33;-0.20;99.90
32534;DHT22;18973;48.580;8.912;2022-12-19T01:48:15;-0.30;99.90
32534;DHT22;18973;48.580;8.912;2022-12-19T01:50:55;-0.20;99.90
32534;DHT22;18973;48.580;8.912;2022-12-19T01:53:25;-0.20;99.90
32534;DHT22;18973;48.580;8.912;2022-12-19T01:55:52;0.00;99.90
32534;DHT22;18973;48.580;8.912;2022-12-19T01:58:18;-0.10;99.90
32534;DHT22;18973;48.580;8.912;2022-12-19T02:00:44;0.00;99.90
32534;DHT22;18973;48.580;8.912;2022-12-19T02:03:26;0.10;99.90
32534;DHT22;18973;48.580;8.912;2022-12-19T02:05:53;0.10;99.90
32534;DHT22;18973;48.580;8.912;2022-12-19T02:08:20;0.20;99.90
32534;DHT22;18973;48.580;8.912;2022-12-19T02:10:46;0.30;99.90
32534;DHT22;18973;48.580;8.912;2022-12-19T02:13:12;0.30;99.90
32534;DHT22;18973;48.580;8.912;2022-12-19T02:15:50;0.30;99.90
32534;DHT22;18973;48.580;8.912;2022-12-19T02:18:32;0.40;99.90
32534;DHT22;18973;48.580;8.912;2022-12-19T02:21:21;0.40;99.90
32534;DHT22;18973;48.580;8.912;2022-12-19T02:30:03;0.40;99.90
32534;DHT22;18973;48.580;8.912;2022-12-19T02:38:05;-0.10;99.90
32534;DHT22;18973;48.580;8.912;2022-12-19T02:40:40;0.00;99.90
32534;DHT22;18973;48.580;8.912;2022-12-19T02:43:08;0.20;99.90
32534;DHT22;18973;48.580;8.912;2022-12-19T02:45:36;0.40;99.90
32534;DHT22;18973;48.580;8.912;2022-12-19T02:48:03;0.50;99.90
32534;DHT22;18973;48.580;8.912;2022-12-19T02:50:41;0.50;99.90
32534;DHT22;18973;48.580;8.912;2022-12-19T02:53:10;0.50;99.90
32534;DHT22;18973;48.580;8.912;2022-12-19T02:59:05;0.40;99.90
32534;DHT22;18973;48.580;8.912;2022-12-19T03:01:56;0.40;99.90
32534;DHT22;18973;48.580;8.912;2022-12-19T03:07:24;0.30;99.90
32534;DHT22;18973;48.580;8.912;2022-12-19T03:10:02;0.30;99.90
32534;DHT22;18973;48.580;8.912;2022-12-19T03:12:39;0.30;99.90
32534;DHT22;18973;48.580;8.912;2022-12-19T03:15:08;0.50;99.90
32534;DHT22;18973;48.580;8.912;2022-12-19T03:17:35;0.60;99.90
32534;DHT22;18973;48.580;8.912;2022-12-19T03:20:08;0.60;99.90
32534;DHT22;18973;48.580;8.912;2022-12-19T03:22:34;0.70;99.90
32534;DHT22;18973;48.580;8.912;2022-12-19T03:25:01;0.60;99.90
32534;DHT22;18973;48.580;8.912;2022-12-19T03:27:32;0.70;99.90
32534;DHT22;18973;48.580;8.912;2022-12-19T03:30:13;0.70;99.90
32534;DHT22;18973;48.580;8.912;2022-12-19T03:32:41;0.70;99.90
32534;DHT22;18973;48.580;8.912;2022-12-19T03:35:28;0.80;99.90
32534;DHT22;18973;48.580;8.912;2022-12-19T03:37:56;0.70;99.90
32534;DHT22;18973;48.580;8.912;2022-12-19T03:40:24;0.70;99.90
32534;DHT22;18973;48.580;8.912;2022-12-19T03:42:54;0.80;99.90
32534;DHT22;18973;48.580;8.912;2022-12-19T03:45:44;0.70;99.90
32534;DHT22;18973;48.580;8.912;2022-12-19T03:48:40;0.80;99.90
32534;DHT22;18973;48.580;8.912;2022-12-19T03:59:41;0.80;99.90
32534;DHT22;18973;48.580;8.912;2022-12-19T04:01:48;0.90;99.90
32534;DHT22;18973;48.580;8.912;2022-12-19T04:04:16;0.80;99.90
32534;DHT22;18973;48.580;8.912;2022-12-19T04:06:43;0.80;99.90
32534;DHT22;18973;48.580;8.912;2022-12-19T04:09:10;0.90;99.90
32534;DHT22;18973;48.580;8.912;2022-12-19T04:11:43;1.00;99.90
32534;DHT22;18973;48.580;8.912;2022-12-19T04:14:17;0.90;99.90
32534;DHT22;18973;48.580;8.912;2022-12-19T04:22:16;1.00;99.90
32534;DHT22;18973;48.580;8.912;2022-12-19T04:24:43;1.10;99.90
32534;DHT22;18973;48.580;8.912;2022-12-19T04:27:11;1.00;99.90
32534;DHT22;18973;48.580;8.912;2022-12-19T04:29:38;1.20;99.90
32534;DHT22;18973;48.580;8.912;2022-12-19T04:32:05;1.20;99.90
32534;DHT22;18973;48.580;8.912;2022-12-19T04:34:33;1.20;99.90
32534;DHT22;18973;48.580;8.912;2022-12-19T04:36:59;1.20;99.90
32534;DHT22;18973;48.580;8.912;2022-12-19T04:39:24;1.20;99.90
32534;DHT22;18973;48.580;8.912;2022-12-19T04:41:50;1.20;99.90
32534;DHT22;18973;48.580;8.912;2022-12-19T04:44:16;1.20;99.90
32534;DHT22;18973;48.580;8.912;2022-12-19T04:46:41;1.20;99.90
32534;DHT22;18973;48.580;8.912;2022-12-19T04:49:07;1.30;99.90
32534;DHT22;18973;48.580;8.912;2022-12-19T04:51:33;1.30;99.90
32534;DHT22;18973;48.580;8.912;2022-12-19T04:53:58;1.50;99.90
32534;DHT22;18973;48.580;8.912;2022-12-19T04:56:24;1.50;99.90
32534;DHT22;18973;48.580;8.912;2022-12-19T04:58:56;1.50;99.90
32534;DHT22;18973;48.580;8.912;2022-12-19T05:01:21;1.50;99.90
32534;DHT22;18973;48.580;8.912;2022-12-19T05:03:47;1.50;99.90
32534;DHT22;18973;48.580;8.912;2022-12-19T05:06:13;1.60;99.90
32534;DHT22;18973;48.580;8.912;2022-12-19T05:08:41;1.70;99.90
32534;DHT22;18973;48.580;8.912;2022-12-19T05:11:08;1.70;99.90
32534;DHT22;18973;48.580;8.912;2022-12-19T05:13:34;1.80;99.90
32534;DHT22;18973;48.580;8.912;2022-12-19T05:16:05;1.80;99.90
32534;DHT22;18973;48.580;8.912;2022-12-19T05:18:32;1.70;99.90
32534;DHT22;18973;48.580;8.912;2022-12-19T05:20:57;1.70;99.90
32534;DHT22;18973;48.580;8.912;2022-12-19T05:23:23;1.80;99.90
32534;DHT22;18973;48.580;8.912;2022-12-19T05:25:50;1.80;99.90
32534;DHT22;18973;48.580;8.912;2022-12-19T05:28:17;1.80;99.90
32534;DHT22;18973;48.580;8.912;2022-12-19T05:30:43;1.80;99.90
32534;DHT22;18973;48.580;8.912;2022-12-19T05:33:09;1.80;99.90
32534;DHT22;18973;48.580;8.912;2022-12-19T05:35:35;1.60;99.90
32534;DHT22;18973;48.580;8.912;2022-12-19T05:38:01;1.60;99.90
32534;DHT22;18973;48.580;8.912;2022-12-19T05:40:27;1.50;99.90
32534;DHT22;18973;48.580;8.912;2022-12-19T05:42:53;1.40;99.90
32534;DHT22;18973;48.580;8.912;2022-12-19T05:45:19;1.50;99.90
32534;DHT22;18973;48.580;8.912;2022-12-19T05:47:48;1.50;99.90
32534;DHT22;18973;48.580;8.912;2022-12-19T05:50:15;1.40;99.90
32534;DHT22;18973;48.580;8.912;2022-12-19T05:52:41;1.30;99.90
32534;DHT22;18973;48.580;8.912;2022-12-19T05:55:08;1.30;99.90
32534;DHT22;18973;48.580;8.912;2022-12-19T05:57:34;1.40;99.90
32534;DHT22;18973;48.580;8.912;2022-12-19T05:59:59;1.50;99.90
32534;DHT22;18973;48.580;8.912;2022-12-19T06:02:25;1.60;99.90
32534;DHT22;18973;48.580;8.912;2022-12-19T06:04:51;1.70;99.90
32534;DHT22;18973;48.580;8.912;2022-12-19T06:07:17;1.70;99.90
32534;DHT22;18973;48.580;8.912;2022-12-19T06:09:43;1.80;99.90
32534;DHT22;18973;48.580;8.912;2022-12-19T06:12:09;1.90;99.90
32534;DHT22;18973;48.580;8.912;2022-12-19T06:14:34;2.00;99.90
32534;DHT22;18973;48.580;8.912;2022-12-19T06:17:00;1.90;99.90
32534;DHT22;18973;48.580;8.912;2022-12-19T06:19:26;1.90;99.90
32534;DHT22;18973;48.580;8.912;2022-12-19T06:21:51;1.80;99.90
32534;DHT22;18973;48.580;8.912;2022-12-19T06:24:17;1.80;99.90
32534;DHT22;18973;48.580;8.912;2022-12-19T06:26:43;1.80;99.90
32534;DHT22;18973;48.580;8.912;2022-12-19T06:29:09;1.70;99.90
32534;DHT22;18973;48.580;8.912;2022-12-19T06:31:35;1.70;99.90
32534;DHT22;18973;48.580;8.912;2022-12-19T06:34:00;1.80;99.90
32534;DHT22;18973;48.580;8.912;2022-12-19T06:36:29;1.80;99.90
32534;DHT22;18973;48.580;8.912;2022-12-19T06:38:56;1.80;99.90
32534;DHT22;18973;48.580;8.912;2022-12-19T06:41:22;1.80;99.90
32534;DHT22;18973;48.580;8.912;2022-12-19T06:44:09;1.90;99.90
32534;DHT22;18973;48.580;8.912;2022-12-19T06:46:35;1.90;99.90
32534;DHT22;18973;48.580;8.912;2022-12-19T06:49:01;2.00;99.90
32534;DHT22;18973;48.580;8.912;2022-12-19T06:51:27;2.10;99.90
32534;DHT22;18973;48.580;8.912;2022-12-19T06:53:53;2.00;99.90
32534;DHT22;18973;48.580;8.912;2022-12-19T06:56:19;1.90;99.90
32534;DHT22;18973;48.580;8.912;2022-12-19T06:58:46;2.00;99.90
32534;DHT22;18973;48.580;8.912;2022-12-19T07:01:20;1.90;99.90
32534;DHT22;18973;48.580;8.912;2022-12-19T07:03:47;2.00;99.90
32534;DHT22;18973;48.580;8.912;2022-12-19T07:06:13;1.90;99.90
32534;DHT22;18973;48.580;8.912;2022-12-19T07:08:42;1.80;99.90
32534;DHT22;18973;48.580;8.912;2022-12-19T07:11:08;1.90;99.90
32534;DHT22;18973;48.580;8.912;2022-12-19T07:13:33;1.90;99.90
32534;DHT22;18973;48.580;8.912;2022-12-19T07:16:01;1.90;99.90
32534;DHT22;18973;48.580;8.912;2022-12-19T07:18:30;2.00;99.90
32534;DHT22;18973;48.580;8.912;2022-12-19T07:20:56;2.00;99.90
32534;DHT22;18973;48.580;8.912;2022-12-19T07:23:22;2.10;99.90
32534;DHT22;18973;48.580;8.912;2022-12-19T07:25:48;2.20;99.90
32534;DHT22;18973;48.580;8.912;2022-12-19T07:28:15;2.20;99.90
32534;DHT22;18973;48.580;8.912;2022-12-19T07:30:41;2.10;99.90
32534;DHT22;18973;48.580;8.912;2022-12-19T07:33:06;2.10;99.90
32534;DHT22;18973;48.580;8.912;2022-12-19T07:35:32;2.10;99.90
32534;DHT22;18973;48.580;8.912;2022-12-19T07:38:02;2.10;99.90
32534;DHT22;18973;48.580;8.912;2022-12-19T07:40:28;2.10;99.90
32534;DHT22;18973;48.580;8.912;2022-12-19T07:43:00;2.20;99.90
32534;DHT22;18973;48.580;8.912;2022-12-19T07:45:27;2.30;99.90
32534;DHT22;18973;48.580;8.912;2022-12-19T07:47:52;2.50;99.90
32534;DHT22;18973;48.580;8.912;2022-12-19T07:50:18;2.70;99.90
32534;DHT22;18973;48.580;8.912;2022-12-19T07:52:44;2.70;99.90
32534;DHT22;18973;48.580;8.912;2022-12-19T07:55:09;2.60;99.90
32534;DHT22;18973;48.580;8.912;2022-12-19T07:57:35;2.60;99.90
32534;DHT22;18973;48.580;8.912;2022-12-19T08:00:02;2.60;99.90
32534;DHT22;18973;48.580;8.912;2022-12-19T08:02:28;2.60;99.90
32534;DHT22;18973;48.580;8.912;2022-12-19T08:04:54;2.50;99.90
32534;DHT22;18973;48.580;8.912;2022-12-19T08:07:19;2.40;99.90
32534;DHT22;18973;48.580;8.912;2022-12-19T08:09:45;2.40;99.90
32534;DHT22;18973;48.580;8.912;2022-12-19T08:12:11;2.40;99.90
32534;DHT22;18973;48.580;8.912;2022-12-19T08:14:37;2.50;99.90
32534;DHT22;18973;48.580;8.912;2022-12-19T08:17:02;2.60;99.90
32534;DHT22;18973;48.580;8.912;2022-12-19T08:19:28;2.50;99.90
32534;DHT22;18973;48.580;8.912;2022-12-19T08:21:54;2.50;99.90
32534;DHT22;18973;48.580;8.912;2022-12-19T08:24:19;2.50;99.90
32534;DHT22;18973;48.580;8.912;2022-12-19T08:26:45;2.70;99.90
32534;DHT22;18973;48.580;8.912;2022-12-19T08:29:11;2.70;99.90
32534;DHT22;18973;48.580;8.912;2022-12-19T08:31:37;2.70;99.90
32534;DHT22;18973;48.580;8.912;2022-12-19T08:34:02;2.90;99.90
32534;DHT22;18973;48.580;8.912;2022-12-19T08:36:28;2.90;99.90
32534;DHT22;18973;48.580;8.912;2022-12-19T08:38:55;3.00;99.90
32534;DHT22;18973;48.580;8.912;2022-12-19T08:41:20;3.00;99.90
32534;DHT22;18973;48.580;8.912;2022-12-19T08:43:52;3.00;99.90
32534;DHT22;18973;48.580;8.912;2022-12-19T08:46:18;3.10;99.90
32534;DHT22;18973;48.580;8.912;2022-12-19T08:48:44;3.10;99.90
32534;DHT22;18973;48.580;8.912;2022-12-19T08:51:12;3.20;99.90
32534;DHT22;18973;48.580;8.912;2022-12-19T08:53:39;3.10;99.90
32534;DHT22;18973;48.580;8.912;2022-12-19T08:56:16;3.10;99.90
32534;DHT22;18973;48.580;8.912;2022-12-19T08:58:42;3.40;99.90
32534;DHT22;18973;48.580;8.912;2022-12-19T09:01:12;3.60;99.90
32534;DHT22;18973;48.580;8.912;2022-12-19T09:03:39;3.50;99.90
32534;DHT22;18973;48.580;8.912;2022-12-19T09:06:07;3.60;99.90
32534;DHT22;18973;48.580;8.912;2022-12-19T09:08:34;3.30;99.90
32534;DHT22;18973;48.580;8.912;2022-12-19T09:13:29;3.50;99.90
32534;DHT22;18973;48.580;8.912;2022-12-19T09:18:35;3.60;99.90
32534;DHT22;18973;48.580;8.912;2022-12-19T09:21:01;3.70;99.90
32534;DHT22;18973;48.580;8.912;2022-12-19T09:23:27;3.80;99.90
32534;DHT22;18973;48.580;8.912;2022-12-19T09:26:04;3.80;99.90
32534;DHT22;18973;48.580;8.912;2022-12-19T09:28:30;3.80;99.90
32534;DHT22;18973;48.580;8.912;2022-12-19T09:31:01;3.80;99.90
32534;DHT22;18973;48.580;8.912;2022-12-19T09:33:29;3.70;99.90
32534;DHT22;18973;48.580;8.912;2022-12-19T09:35:55;3.80;99.90
32534;DHT22;18973;48.580;8.912;2022-12-19T09:38:22;3.70;99.90
32534;DHT22;18973;48.580;8.912;2022-12-19T09:46:10;3.90;99.90
32534;DHT22;18973;48.580;8.912;2022-12-19T09:48:39;4.00;99.90
32534;DHT22;18973;48.580;8.912;2022-12-19T09:51:15;4.10;99.90
32534;DHT22;18973;48.580;8.912;2022-12-19T09:54:06;4.20;99.90
32534;DHT22;18973;48.580;8.912;2022-12-19T09:56:37;4.20;99.90
32534;DHT22;18973;48.580;8.912;2022-12-19T09:59:11;4.30;99.90
32534;DHT22;18973;48.580;8.912;2022-12-19T10:04:48;4.30;99.90
32534;DHT22;18973;48.580;8.912;2022-12-19T10:07:17;4.40;99.90
32534;DHT22;18973;48.580;8.912;2022-12-19T10:09:43;5.10;99.90
32534;DHT22;18973;48.580;8.912;2022-12-19T10:12:32;5.30;99.90
32534;DHT22;18973;48.580;8.912;2022-12-19T10:15:22;5.30;99.90
32534;DHT22;18973;48.580;8.912;2022-12-19T10:20:36;5.20;99.90
32534;DHT22;18973;48.580;8.912;2022-12-19T10:23:11;4.80;99.90
32534;DHT22;18973;48.580;8.912;2022-12-19T10:25:58;4.70;99.90
32534;DHT22;18973;48.580;8.912;2022-12-19T10:33:40;4.20;99.90
32534;DHT22;18973;48.580;8.912;2022-12-19T10:36:09;4.30;99.90
32534;DHT22;18973;48.580;8.912;2022-12-19T10:41:22;4.40;99.90
32534;DHT22;18973;48.580;8.912;2022-12-19T10:49:12;4.80;99.90
32534;DHT22;18973;48.580;8.912;2022-12-19T10:51:39;5.00;99.90
32534;DHT22;18973;48.580;8.912;2022-12-19T10:54:05;5.20;99.90
32534;DHT22;18973;48.580;8.912;2022-12-19T10:56:31;5.30;99.90
32534;DHT22;18973;48.580;8.912;2022-12-19T10:58:58;5.30;99.90
32534;DHT22;18973;48.580;8.912;2022-12-19T11:01:39;5.20;99.90
32534;DHT22;18973;48.580;8.912;2022-12-19T11:09:28;5.70;99.90
32534;DHT22;18973;48.580;8.912;2022-12-19T11:14:34;6.30;99.90
32534;DHT22;18973;48.580;8.912;2022-12-19T11:17:02;6.50;99.90
32534;DHT22;18973;48.580;8.912;2022-12-19T11:19:35;6.40;99.90
32534;DHT22;18973;48.580;8.912;2022-12-19T11:22:13;5.90;99.90
32534;DHT22;18973;48.580;8.912;2022-12-19T11:24:43;5.80;99.90
32534;DHT22;18973;48.580;8.912;2022-12-19T11:27:42;6.00;99.90
32534;DHT22;18973;48.580;8.912;2022-12-19T11:32:42;6.40;99.90
32534;DHT22;18973;48.580;8.912;2022-12-19T11:35:18;6.40;99.90
32534;DHT22;18973;48.580;8.912;2022-12-19T11:37:54;6.50;99.90
32534;DHT22;18973;48.580;8.912;2022-12-19T11:48:47;6.50;99.90
32534;DHT22;18973;48.580;8.912;2022-12-19T11:53:49;6.60;99.90
32534;DHT22;18973;48.580;8.912;2022-12-19T11:56:20;6.60;99.90
32534;DHT22;18973;48.580;8.912;2022-12-19T11:58:53;7.50;99.90
32534;DHT22;18973;48.580;8.912;2022-12-19T12:07:04;11.60;99.90
32534;DHT22;18973;48.580;8.912;2022-12-19T12:09:44;11.80;99.90
32534;DHT22;18973;48.580;8.912;2022-12-19T12:12:22;11.60;98.30
32534;DHT22;18973;48.580;8.912;2022-12-19T12:14:59;11.00;99.10
32534;DHT22;18973;48.580;8.912;2022-12-19T12:17:43;10.30;99.30
32534;DHT22;18973;48.580;8.912;2022-12-19T12:25:51;7.20;99.90
32534;DHT22;18973;48.580;8.912;2022-12-19T12:34:18;6.80;99.90
32534;DHT22;18973;48.580;8.912;2022-12-19T12:42:10;6.60;99.90
32534;DHT22;18973;48.580;8.912;2022-12-19T12:44:40;6.60;99.90
32534;DHT22;18973;48.580;8.912;2022-12-19T12:47:22;6.70;99.90
32534;DHT22;18973;48.580;8.912;2022-12-19T12:52:35;6.70;99.90
32534;DHT22;18973;48.580;8.912;2022-12-19T12:55:05;6.70;99.90
32534;DHT22;18973;48.580;8.912;2022-12-19T12:57:37;6.50;99.90
32534;DHT22;18973;48.580;8.912;2022-12-19T13:00:37;6.50;99.90
32534;DHT22;18973;48.580;8.912;2022-12-19T13:08:34;6.50;99.90
32534;DHT22;18973;48.580;8.912;2022-12-19T13:11:04;6.40;99.90
32534;DHT22;18973;48.580;8.912;2022-12-19T13:13:52;6.40;99.90
32534;DHT22;18973;48.580;8.912;2022-12-19T13:19:20;6.10;99.90
32534;DHT22;18973;48.580;8.912;2022-12-19T13:24:42;6.10;99.90
32534;DHT22;18973;48.580;8.912;2022-12-19T13:30:14;6.00;99.90
32534;DHT22;18973;48.580;8.912;2022-12-19T13:38:04;5.90;99.90
32534;DHT22;18973;48.580;8.912;2022-12-19T13:41:01;6.00;99.90
32534;DHT22;18973;48.580;8.912;2022-12-19T13:43:47;5.90;99.90
32534;DHT22;18973;48.580;8.912;2022-12-19T13:46:37;5.80;99.90
32534;DHT22;18973;48.580;8.912;2022-12-19T13:49:30;5.80;99.90
32534;DHT22;18973;48.580;8.912;2022-12-19T13:51:58;5.80;99.90
32534;DHT22;18973;48.580;8.912;2022-12-19T13:54:30;5.80;99.90
32534;DHT22;18973;48.580;8.912;2022-12-19T13:56:59;5.80;99.90
32534;DHT22;18973;48.580;8.912;2022-12-19T13:59:30;5.80;99.90
32534;DHT22;18973;48.580;8.912;2022-12-19T14:02:06;5.70;99.90
32534;DHT22;18973;48.580;8.912;2022-12-19T14:04:35;5.70;99.90
32534;DHT22;18973;48.580;8.912;2022-12-19T14:07:05;5.80;99.90
32534;DHT22;18973;48.580;8.912;2022-12-19T14:09:51;5.80;99.90
32534;DHT22;18973;48.580;8.912;2022-12-19T14:12:29;5.80;99.90
32534;DHT22;18973;48.580;8.912;2022-12-19T14:17:47;5.60;99.90
32534;DHT22;18973;48.580;8.912;2022-12-19T14:20:26;5.50;99.90
32534;DHT22;18973;48.580;8.912;2022-12-19T14:22:59;5.50;99.90
32534;DHT22;18973;48.580;8.912;2022-12-19T14:25:42;5.40;99.90
32534;DHT22;18973;48.580;8.912;2022-12-19T14:28:16;5.50;99.90
32534;DHT22;18973;48.580;8.912;2022-12-19T14:30:47;5.30;99.90
32534;DHT22;18973;48.580;8.912;2022-12-19T14:33:16;5.40;99.90
32534;DHT22;18973;48.580;8.912;2022-12-19T14:35:46;5.20;99.90
32534;DHT22;18973;48.580;8.912;2022-12-19T14:38:18;5.20;99.90
32534;DHT22;18973;48.580;8.912;2022-12-19T14:40:45;5.20;99.90
32534;DHT22;18973;48.580;8.912;2022-12-19T14:43:22;5.10;99.90
32534;DHT22;18973;48.580;8.912;2022-12-19T14:46:11;5.20;99.90
32534;DHT22;18973;48.580;8.912;2022-12-19T14:48:54;5.20;99.90
32534;DHT22;18973;48.580;8.912;2022-12-19T14:51:37;5.30;99.90
32534;DHT22;18973;48.580;8.912;2022-12-19T14:54:16;5.30;99.90
32534;DHT22;18973;48.580;8.912;2022-12-19T14:56:52;5.20;99.90
32534;DHT22;18973;48.580;8.912;2022-12-19T15:01:54;5.10;99.90
32534;DHT22;18973;48.580;8.912;2022-12-19T15:04:25;5.00;99.90
32534;DHT22;18973;48.580;8.912;2022-12-19T15:06:54;4.90;99.90
32534;DHT22;18973;48.580;8.912;2022-12-19T15:09:20;5.10;99.90
32534;DHT22;18973;48.580;8.912;2022-12-19T15:11:47;5.20;99.90
32534;DHT22;18973;48.580;8.912;2022-12-19T15:14:47;5.20;99.90
32534;DHT22;18973;48.580;8.912;2022-12-19T15:17:20;5.20;99.90
32534;DHT22;18973;48.580;8.912;2022-12-19T15:19:46;5.10;99.90
32534;DHT22;18973;48.580;8.912;2022-12-19T15:22:12;5.10;99.90
32534;DHT22;18973;48.580;8.912;2022-12-19T15:24:38;5.10;99.90
32534;DHT22;18973;48.580;8.912;2022-12-19T15:27:04;5.00;99.90
32534;DHT22;18973;48.580;8.912;2022-12-19T15:29:29;4.90;99.90
32534;DHT22;18973;48.580;8.912;2022-12-19T15:31:57;4.80;99.90
32534;DHT22;18973;48.580;8.912;2022-12-19T15:34:28;4.70;99.90
32534;DHT22;18973;48.580;8.912;2022-12-19T15:36:55;4.80;99.90
32534;DHT22;18973;48.580;8.912;2022-12-19T15:39:22;4.70;99.90
32534;DHT22;18973;48.580;8.912;2022-12-19T15:41:51;4.80;99.90
32534;DHT22;18973;48.580;8.912;2022-12-19T15:47:05;4.60;99.90
32534;DHT22;18973;48.580;8.912;2022-12-19T15:49:31;4.50;99.90
32534;DHT22;18973;48.580;8.912;2022-12-19T15:52:00;4.40;99.90
32534;DHT22;18973;48.580;8.912;2022-12-19T15:54:26;4.40;99.90
32534;DHT22;18973;48.580;8.912;2022-12-19T15:56:53;4.40;99.90
32534;DHT22;18973;48.580;8.912;2022-12-19T15:59:27;4.50;99.90
32534;DHT22;18973;48.580;8.912;2022-12-19T16:01:55;4.50;99.90
32534;DHT22;18973;48.580;8.912;2022-12-19T16:04:22;4.60;99.90
32534;DHT22;18973;48.580;8.912;2022-12-19T16:06:48;4.90;99.90
32534;DHT22;18973;48.580;8.912;2022-12-19T16:09:26;4.90;99.90
32534;DHT22;18973;48.580;8.912;2022-12-19T16:11:55;4.90;99.90
32534;DHT22;18973;48.580;8.912;2022-12-19T16:14:23;4.80;99.90
32534;DHT22;18973;48.580;8.912;2022-12-19T16:16:52;4.70;99.90
32534;DHT22;18973;48.580;8.912;2022-12-19T16:19:36;4.50;99.90
32534;DHT22;18973;48.580;8.912;2022-12-19T16:22:15;4.30;99.90
32534;DHT22;18973;48.580;8.912;2022-12-19T16:24:41;4.30;99.90
32534;DHT22;18973;48.580;8.912;2022-12-19T16:27:09;4.30;99.90
32534;DHT22;18973;48.580;8.912;2022-12-19T16:29:40;4.20;99.90
32534;DHT22;18973;48.580;8.912;2022-12-19T16:32:09;4.20;99.90
32534;DHT22;18973;48.580;8.912;2022-12-19T16:34:36;4.20;99.90
32534;DHT22;18973;48.580;8.912;2022-12-19T16:37:01;4.10;99.90
32534;DHT22;18973;48.580;8.912;2022-12-19T16:39:27;4.20;99.90
32534;DHT22;18973;48.580;8.912;2022-12-19T16:41:53;4.20;99.90
32534;DHT22;18973;48.580;8.912;2022-12-19T16:44:21;4.20;99.90
32534;DHT22;18973;48.580;8.912;2022-12-19T16:46:47;4.10;99.90
32534;DHT22;18973;48.580;8.912;2022-12-19T16:49:17;4.10;99.90
32534;DHT22;18973;48.580;8.912;2022-12-19T16:51:43;4.10;99.90
32534;DHT22;18973;48.580;8.912;2022-12-19T16:54:13;4.00;99.90
32534;DHT22;18973;48.580;8.912;2022-12-19T16:56:46;4.10;99.90
32534;DHT22;18973;48.580;8.912;2022-12-19T16:59:31;4.10;99.90
32534;DHT22;18973;48.580;8.912;2022-12-19T17:01:58;4.20;99.90
32534;DHT22;18973;48.580;8.912;2022-12-19T17:04:25;4.10;99.90
32534;DHT22;18973;48.580;8.912;2022-12-19T17:06:52;4.10;99.90
32534;DHT22;18973;48.580;8.912;2022-12-19T17:09:20;4.10;99.90
32534;DHT22;18973;48.580;8.912;2022-12-19T17:11:51;4.10;99.90
32534;DHT22;18973;48.580;8.912;2022-12-19T17:14:21;4.10;99.90
32534;DHT22;18973;48.580;8.912;2022-12-19T17:16:46;4.10;99.90
32534;DHT22;18973;48.580;8.912;2022-12-19T17:19:35;4.10;99.90
32534;DHT22;18973;48.580;8.912;2022-12-19T17:22:01;4.20;99.90
32534;DHT22;18973;48.580;8.912;2022-12-19T17:24:27;4.30;99.90
32534;DHT22;18973;48.580;8.912;2022-12-19T17:26:53;4.30;99.90
32534;DHT22;18973;48.580;8.912;2022-12-19T17:29:18;4.30;99.90
32534;DHT22;18973;48.580;8.912;2022-12-19T17:31:44;4.20;99.90
32534;DHT22;18973;48.580;8.912;2022-12-19T17:34:17;4.20;99.90
32534;DHT22;18973;48.580;8.912;2022-12-19T17:36:45;4.30;99.90
32534;DHT22;18973;48.580;8.912;2022-12-19T17:39:22;4.30;99.90
32534;DHT22;18973;48.580;8.912;2022-12-19T17:41:49;4.40;99.90
32534;DHT22;18973;48.580;8.912;2022-12-19T17:44:15;4.40;99.90
32534;DHT22;18973;48.580;8.912;2022-12-19T17:46:41;4.40;99.90
32534;DHT22;18973;48.580;8.912;2022-12-19T17:49:26;4.40;99.90
32534;DHT22;18973;48.580;8.912;2022-12-19T17:51:52;4.20;99.90
32534;DHT22;18973;48.580;8.912;2022-12-19T17:54:19;4.10;99.90
32534;DHT22;18973;48.580;8.912;2022-12-19T17:56:46;4.00;99.90
32534;DHT22;18973;48.580;8.912;2022-12-19T17:59:11;4.10;99.90
32534;DHT22;18973;48.580;8.912;2022-12-19T18:01:38;4.10;99.90
32534;DHT22;18973;48.580;8.912;2022-12-19T18:04:10;4.10;99.90
32534;DHT22;18973;48.580;8.912;2022-12-19T18:06:37;4.10;99.90
32534;DHT22;18973;48.580;8.912;2022-12-19T18:09:03;4.00;99.90
32534;DHT22;18973;48.580;8.912;2022-12-19T18:11:30;4.10;99.90
32534;DHT22;18973;48.580;8.912;2022-12-19T18:13:56;5.50;99.90
32534;DHT22;18973;48.580;8.912;2022-12-19T18:16:25;6.50;99.90
32534;DHT22;18973;48.580;8.912;2022-12-19T18:18:51;6.10;99.90